Time;durP1;ratioP1;P1;durP2;ratioP2;P2;SDS_P1;SDS_P2;PMS_P1;PMS_P2;Temp;Humidity;BMP_temperature;BMP_pressure;BME280_temperature;BME280_humidity;BME280_pressure;Samples;Min_cycle;Max_cycle;Signal;HPM_P1;HPM_P2
2024/04/16 00:01:19;;;;;;;4.15;0.50;;;14.40;46.20;;;9.00;75.43;94832.47;5302884;26;20016;-47
2024/04/16 00:03:44;;;;;;;1.95;0.47;;;14.20;46.60;;;8.97;75.63;94819.72;5304569;27;20464;-47
2024/04/16 00:06:10;;;;;;;2.03;0.50;;;14.10;46.80;;;8.69;76.99;94819.28;5302752;26;20001;-47
2024/04/16 00:08:36;;;;;;;0.52;0.40;;;13.90;47.40;;;8.71;77.71;94821.66;5274224;27;20005;-49
2024/04/16 00:11:03;;;;;;;1.77;0.47;;;13.80;47.70;;;8.58;79.41;94828.34;5304224;27;20379;-46
2024/04/16 00:13:29;;;;;;;3.08;0.75;;;13.70;48.10;;;8.54;79.92;94825.44;5301205;26;20020;-48
2024/04/16 00:15:55;;;;;;;0.82;0.30;;;13.50;48.30;;;8.35;81.74;94829.69;5304071;27;20009;-47
2024/04/16 00:18:21;;;;;;;0.30;0.30;;;13.40;48.70;;;8.21;82.89;94826.00;5302952;27;19997;-47
2024/04/16 00:20:49;;;;;;;1.42;0.30;;;13.30;49.10;;;8.09;83.41;94832.41;5304088;27;20012;-50
2024/04/16 00:23:14;;;;;;;0.43;0.30;;;13.20;49.40;;;7.96;82.59;94819.69;5304102;27;20087;-49
2024/04/16 00:25:40;;;;;;;0.50;0.40;;;13.10;49.60;;;7.89;83.39;94837.69;5302266;26;20012;-49
2024/04/16 00:28:06;;;;;;;0.88;0.30;;;13.00;49.80;;;7.82;82.81;94835.31;5302317;27;20006;-52
2024/04/16 00:30:32;;;;;;;0.30;0.30;;;12.90;50.00;;;7.81;82.22;94827.63;5303618;26;20472;-46
2024/04/16 00:32:58;;;;;;;0.40;0.30;;;12.80;50.20;;;7.65;81.31;94824.19;5304007;27;20001;-48
2024/04/16 00:35:23;;;;;;;0.17;0.17;;;12.70;50.30;;;7.59;81.25;94825.22;5303429;27;20055;-52
2024/04/16 00:37:49;;;;;;;0.63;0.40;;;12.60;50.40;;;7.49;82.26;94822.53;5302698;27;20046;-50
2024/04/16 00:40:15;;;;;;;0.85;0.40;;;12.50;50.50;;;7.33;83.25;94829.69;5303747;27;20020;-49
2024/04/16 00:42:41;;;;;;;0.30;0.30;;;12.40;50.80;;;7.23;85.25;94822.50;5302295;27;20565;-49
2024/04/16 00:45:09;;;;;;;0.98;0.25;;;12.30;51.10;;;7.22;87.28;94830.72;5303415;27;20325;-49
2024/04/16 00:47:36;;;;;;;0.20;0.20;;;12.20;51.40;;;7.14;89.62;94837.31;5303589;27;20011;-48
2024/04/16 00:50:05;;;;;;;0.30;0.30;;;12.10;51.70;;;6.94;91.35;94822.97;5302470;26;20009;-48
2024/04/16 00:52:31;;;;;;;0.90;0.30;;;11.90;52.70;;;6.92;93.56;94819.75;5298843;27;21355;-48
2024/04/16 00:54:57;;;;;;;0.35;0.30;;;11.80;52.80;;;6.88;95.36;94823.19;5302284;27;20337;-47
2024/04/16 00:57:23;;;;;;;0.28;0.25;;;11.70;53.20;;;6.81;96.43;94807.56;5303426;27;20013;-51
2024/04/16 00:59:52;;;;;;;0.20;0.20;;;11.60;53.40;;;6.63;98.11;94814.09;5303103;27;20403;-49
2024/04/16 01:02:18;;;;;;;0.52;0.25;;;11.50;53.90;;;6.61;98.70;94816.22;5302670;26;20095;-48
2024/04/16 01:04:46;;;;;;;0.30;0.28;;;11.40;53.80;;;6.49;99.49;94821.72;5303789;27;20016;-50
2024/04/16 01:07:12;;;;;;;1.15;0.20;;;11.30;54.20;;;6.35;100.00;94831.16;5300285;26;20001;-46
2024/04/16 01:09:38;;;;;;;0.40;0.30;;;11.20;54.70;;;6.31;100.00;94834.56;5303441;27;20392;-49
2024/04/16 01:12:05;;;;;;;0.30;0.30;;;11.10;54.90;;;6.13;100.00;94835.78;5302014;26;20001;-49
2024/04/16 01:14:31;;;;;;;0.90;0.30;;;11.00;55.40;;;6.03;100.00;94828.56;5303124;27;20016;-48
2024/04/16 01:16:56;;;;;;;0.45;0.30;;;10.80;55.50;;;5.90;100.00;94836.91;5303184;27;20012;-47
2024/04/16 01:19:23;;;;;;;0.40;0.20;;;10.70;56.10;;;5.71;100.00;94841.78;5302145;26;20465;-48
2024/04/16 01:21:49;;;;;;;0.73;0.30;;;10.60;56.60;;;5.56;100.00;94859.09;5303028;27;20538;-46
2024/04/16 01:24:16;;;;;;;2.10;0.30;;;10.40;57.00;;;5.37;100.00;94851.78;5301514;27;20017;-48
2024/04/16 01:26:42;;;;;;;1.60;0.50;;;10.30;57.30;;;5.30;100.00;94854.63;5303234;27;20020;-46
2024/04/16 01:29:08;;;;;;;1.67;0.40;;;10.10;57.40;;;5.21;100.00;94845.53;5305389;26;20001;-47
2024/04/16 01:31:34;;;;;;;4.40;0.60;;;10.00;57.70;;;5.12;100.00;94855.75;5301847;27;20023;-47
2024/04/16 01:34:00;;;;;;;2.05;0.50;;;9.90;58.00;;;5.08;100.00;94858.09;5302906;27;20458;-47
2024/04/16 01:36:26;;;;;;;0.47;0.40;;;9.70;58.20;;;5.05;100.00;94863.06;5271478;27;20029;-46
2024/04/16 01:38:52;;;;;;;1.58;0.40;;;9.70;58.30;;;4.84;100.00;94870.72;5302580;27;19998;-48
2024/04/16 01:41:18;;;;;;;2.38;0.60;;;9.60;58.70;;;4.72;100.00;94870.03;5302723;27;20078;-46
2024/04/16 01:43:43;;;;;;;2.42;0.68;;;9.50;58.90;;;4.66;100.00;94868.38;5299300;26;20013;-46
2024/04/16 01:46:09;;;;;;;2.78;0.75;;;9.40;59.20;;;4.62;100.00;94869.94;5302866;26;20008;-50
2024/04/16 01:48:35;;;;;;;2.65;0.60;;;9.30;59.30;;;4.58;100.00;94872.25;5301403;26;20012;-46
2024/04/16 01:51:01;;;;;;;1.38;0.65;;;9.30;59.40;;;4.42;100.00;94881.00;5302544;27;20353;-46
2024/04/16 01:53:27;;;;;;;2.80;0.80;;;9.10;59.70;;;4.35;100.00;94885.63;5302610;27;20004;-49
2024/04/16 01:55:53;;;;;;;2.88;0.73;;;9.10;60.00;;;4.35;100.00;94880.38;5301252;26;20001;-48
2024/04/16 01:58:19;;;;;;;2.63;0.80;;;9.00;60.00;;;4.30;100.00;94875.81;5302700;27;20023;-47
2024/04/16 02:00:45;;;;;;;1.60;0.90;;;9.00;60.00;;;4.20;100.00;94873.06;5301352;26;20332;-46
2024/04/16 02:03:10;;;;;;;2.97;0.90;;;8.90;60.20;;;4.12;100.00;94876.09;5302955;27;20034;-48
2024/04/16 02:05:40;;;;;;;3.40;0.80;;;8.80;60.60;;;4.01;100.00;94864.59;5299440;27;20005;-47
2024/04/16 02:08:06;;;;;;;2.40;0.77;;;8.80;60.90;;;4.03;100.00;94880.16;5301024;26;20566;-46
2024/04/16 02:10:32;;;;;;;1.27;0.80;;;8.70;60.70;;;3.95;100.00;94891.91;5302423;27;20351;-46
2024/04/16 02:12:58;;;;;;;4.15;0.90;;;8.60;60.90;;;3.99;100.00;94886.97;5301363;26;20033;-46
2024/04/16 02:15:23;;;;;;;3.35;0.90;;;8.60;61.20;;;3.98;100.00;94878.25;5302192;27;20019;-50
2024/04/16 02:17:49;;;;;;;2.38;0.90;;;8.60;61.40;;;4.00;100.00;94880.63;5302527;27;20413;-47
2024/04/16 02:20:15;;;;;;;2.30;0.75;;;8.50;61.30;;;4.04;100.00;94879.09;5301028;27;20372;-46
2024/04/16 02:22:41;;;;;;;5.30;1.33;;;8.60;61.30;;;3.98;100.00;94874.81;5302484;27;20071;-46
2024/04/16 02:25:10;;;;;;;1.42;0.60;;;8.50;61.40;;;3.91;100.00;94870.47;5300924;27;20490;-46
2024/04/16 02:27:36;;;;;;;1.58;0.60;;;8.50;61.40;;;3.86;100.00;94870.44;5302268;27;20006;-46
2024/04/16 02:30:02;;;;;;;2.78;0.63;;;8.50;61.60;;;3.86;100.00;94859.09;5303005;26;20013;-48
2024/04/16 02:32:28;;;;;;;4.78;1.30;;;8.50;61.80;;;3.87;100.00;94868.59;5302120;27;20376;-49
2024/04/16 02:34:54;;;;;;;2.00;0.52;;;8.50;61.90;;;3.84;100.00;94879.59;5301997;27;20020;-47
2024/04/16 02:37:19;;;;;;;2.22;0.40;;;8.40;61.90;;;3.86;100.00;94875.69;5300625;26;20313;-47
2024/04/16 02:39:45;;;;;;;1.58;0.57;;;8.40;61.80;;;3.87;100.00;94879.13;5302226;27;20016;-49
2024/04/16 02:42:11;;;;;;;4.53;0.80;;;8.40;62.10;;;3.87;100.00;94879.13;5301057;27;20005;-50
2024/04/16 02:44:37;;;;;;;1.90;0.60;;;8.40;62.20;;;3.83;100.00;94870.91;5300548;27;20379;-49
2024/04/16 02:47:03;;;;;;;3.03;0.68;;;8.40;62.50;;;3.79;100.00;94867.16;5301720;27;20001;-47
2024/04/16 02:49:28;;;;;;;4.13;0.77;;;8.40;62.70;;;3.78;100.00;94870.81;5300444;27;20395;-45
2024/04/16 02:51:54;;;;;;;2.03;0.60;;;8.40;62.70;;;3.80;100.00;94870.59;5304102;27;20064;-45
2024/04/16 02:54:20;;;;;;;2.85;0.80;;;8.40;62.90;;;3.72;100.00;94872.56;5302935;26;20016;-46
2024/04/16 02:56:46;;;;;;;2.30;0.70;;;8.30;63.00;;;3.63;100.00;94876.63;5304074;26;19997;-48
2024/04/16 02:59:12;;;;;;;2.53;0.95;;;8.30;63.10;;;3.62;100.00;94879.50;5304881;27;20042;-46
2024/04/16 03:01:38;;;;;;;2.67;0.80;;;8.30;63.40;;;3.57;100.00;94888.09;5303967;27;20436;-48
2024/04/16 03:04:04;;;;;;;2.80;0.80;;;8.30;63.60;;;3.59;100.00;94885.25;5304999;27;20015;-46
2024/04/16 03:06:30;;;;;;;3.15;0.95;;;8.20;63.60;;;3.51;100.00;94886.44;5303613;26;19998;-46
2024/04/16 03:08:56;;;;;;;1.70;0.65;;;8.20;63.80;;;3.52;100.00;94895.13;5304945;27;20036;-46
2024/04/16 03:11:21;;;;;;;6.05;0.98;;;8.20;64.10;;;3.54;100.00;94891.25;5305113;27;20016;-48
2024/04/16 03:13:47;;;;;;;2.22;0.82;;;8.10;64.10;;;3.51;100.00;94881.19;5303243;27;20338;-46
2024/04/16 03:16:13;;;;;;;5.43;0.82;;;8.10;64.10;;;3.50;100.00;94894.56;5305016;27;20546;-48
2024/04/16 03:18:39;;;;;;;5.38;1.13;;;8.10;64.30;;;3.46;100.00;94889.78;5303679;27;20004;-48
2024/04/16 03:21:05;;;;;;;3.17;0.93;;;8.10;64.60;;;3.48;100.00;94894.81;5304943;27;20001;-47
2024/04/16 03:23:30;;;;;;;3.90;0.90;;;8.10;64.60;;;3.47;100.00;94895.81;5304707;27;20001;-48
2024/04/16 03:26:00;;;;;;;4.85;1.08;;;8.00;64.50;;;3.29;100.00;94883.69;5303494;27;20059;-46
2024/04/16 03:28:26;;;;;;;4.20;1.05;;;8.00;65.00;;;3.27;100.00;94882.31;5301842;26;20483;-47
2024/04/16 03:30:52;;;;;;;3.20;0.90;;;8.00;65.10;;;3.28;100.00;94892.59;5305682;26;20001;-46
2024/04/16 03:33:18;;;;;;;3.58;1.08;;;7.90;65.10;;;3.28;100.00;94894.44;5304685;27;20020;-48
2024/04/16 03:35:51;;;;;;;6.65;1.48;;;7.90;65.10;;;3.28;100.00;94912.84;5304553;27;20070;-46
2024/04/16 03:38:17;;;;;;;3.95;1.08;;;7.90;65.10;;;3.20;100.00;94904.31;5304357;27;20497;-49
2024/04/16 03:40:51;;;;;;;3.92;1.00;;;7.90;65.10;;;3.10;100.00;94903.31;5304959;27;20016;-46
2024/04/16 03:43:17;;;;;;;4.85;1.08;;;7.80;65.10;;;2.99;100.00;94902.31;5300218;26;20352;-48
2024/04/16 03:45:42;;;;;;;4.53;1.50;;;7.70;65.20;;;3.04;100.00;94907.69;5304373;27;20009;-47
2024/04/16 03:48:08;;;;;;;8.43;1.15;;;7.70;65.50;;;3.08;100.00;94908.00;5303091;26;20078;-48
2024/04/16 03:50:34;;;;;;;3.15;1.08;;;7.70;65.40;;;3.06;100.00;94910.88;5274465;27;20013;-47
2024/04/16 03:53:00;;;;;;;3.50;1.48;;;7.70;65.50;;;3.06;100.00;94904.81;5304573;27;20033;-48
2024/04/16 03:55:26;;;;;;;9.75;1.70;;;7.60;65.40;;;2.96;100.00;94922.00;5300594;26;20005;-47
2024/04/16 03:57:51;;;;;;;5.82;1.60;;;7.60;65.60;;;2.97;100.00;94912.25;5304277;27;20364;-47
2024/04/16 04:03:02;;;;;;;3.17;1.05;;;7.60;65.60;;;2.99;100.00;94939.16;5302240;27;20486;-46
2024/04/16 04:05:28;;;;;;;4.55;1.40;;;7.60;65.60;;;2.99;100.00;94939.16;5304008;27;20013;-46
2024/04/16 04:07:54;;;;;;;6.55;1.20;;;7.50;65.90;;;2.99;100.00;94944.41;5302840;26;20032;-50
2024/04/16 04:10:20;;;;;;;5.35;1.40;;;7.60;66.00;;;2.99;100.00;94934.69;5304304;27;20385;-49
2024/04/16 04:12:45;;;;;;;4.43;0.85;;;7.60;66.00;;;2.92;100.00;94934.03;5302984;26;20075;-48
2024/04/16 04:15:11;;;;;;;4.53;1.20;;;7.50;66.00;;;3.00;100.00;94932.84;5299922;27;20005;-52
2024/04/16 04:17:37;;;;;;;5.88;1.17;;;7.60;65.90;;;3.03;100.00;94944.75;5303948;27;20079;-48
2024/04/16 04:20:03;;;;;;;4.90;1.20;;;7.60;65.90;;;3.02;100.00;94957.09;5302793;26;20006;-48
2024/04/16 04:22:29;;;;;;;3.65;1.00;;;7.60;65.80;;;2.92;100.00;94949.00;5304174;27;20013;-49
2024/04/16 04:24:56;;;;;;;6.25;1.55;;;7.60;65.90;;;2.93;100.00;94953.22;5302396;27;20814;-48
2024/04/16 04:27:22;;;;;;;5.43;1.23;;;7.60;65.90;;;2.96;100.00;94944.88;5303717;27;20041;-46
2024/04/16 04:29:48;;;;;;;4.03;1.83;;;7.60;66.00;;;2.96;100.00;94939.63;5304945;26;20001;-47
2024/04/16 04:32:15;;;;;;;3.92;1.67;;;7.60;65.90;;;2.97;100.00;94954.38;5302586;26;20009;-47
2024/04/16 04:34:41;;;;;;;7.15;2.05;;;7.60;66.10;;;3.02;100.00;94954.47;5303380;27;20013;-50
2024/04/16 04:37:07;;;;;;;3.17;1.85;;;7.60;66.10;;;3.05;100.00;94955.84;5301078;26;20001;-50
2024/04/16 04:39:32;;;;;;;3.90;1.50;;;7.60;66.10;;;3.05;100.00;94961.09;5303189;27;20546;-47
2024/04/16 04:41:58;;;;;;;2.70;0.90;;;7.70;66.10;;;2.94;100.00;94962.72;5302781;26;20005;-47
2024/04/16 04:44:24;;;;;;;2.38;0.90;;;7.60;66.30;;;2.93;100.00;94966.38;5303284;27;20009;-48
2024/04/16 04:46:50;;;;;;;6.28;0.80;;;7.60;66.30;;;2.90;100.00;94969.47;5303494;27;20352;-47
2024/04/16 04:49:16;;;;;;;1.80;0.70;;;7.60;66.30;;;2.89;100.00;94958.16;5302422;27;20013;-46
2024/04/16 04:51:41;;;;;;;3.00;0.75;;;7.60;66.50;;;2.85;100.00;94956.22;5303958;27;20016;-52
2024/04/16 04:54:07;;;;;;;1.27;0.68;;;7.60;66.70;;;2.89;100.00;94960.00;5302265;27;20009;-47
2024/04/16 04:56:33;;;;;;;0.52;0.50;;;7.60;66.70;;;2.86;100.00;94973.63;5303134;27;20020;-47
2024/04/16 04:58:59;;;;;;;1.45;0.85;;;7.60;66.90;;;2.88;100.00;94976.78;5299779;21;20028;-46
2024/04/16 05:01:25;;;;;;;3.25;0.60;;;7.60;66.70;;;2.85;100.00;94988.59;5266001;27;20001;-48
2024/04/16 05:03:50;;;;;;;6.00;1.00;;;7.60;67.20;;;2.83;100.00;94974.06;5267627;27;20017;-48
2024/04/16 05:06:17;;;;;;;4.40;0.80;;;7.50;67.30;;;2.88;100.00;94982.06;5266838;27;20017;-47
2024/04/16 05:08:42;;;;;;;3.72;0.88;;;7.50;67.30;;;2.91;100.00;94995.53;5262192;27;20040;-46
2024/04/16 05:11:08;;;;;;;2.72;0.90;;;7.50;67.30;;;2.86;100.00;94989.41;5267544;27;20024;-50
2024/04/16 05:13:34;;;;;;;3.88;1.23;;;7.60;67.40;;;2.88;100.00;95000.47;5265152;27;20025;-47
2024/04/16 05:16:01;;;;;;;8.75;1.05;;;7.50;67.30;;;2.85;100.00;94991.22;5267761;27;20010;-50
2024/04/16 05:18:27;;;;;;;3.83;0.95;;;7.50;67.30;;;2.85;100.00;94978.09;5266713;27;20475;-48
2024/04/16 05:20:56;;;;;;;2.88;0.98;;;7.50;67.30;;;2.84;100.00;94986.19;5267849;27;20018;-46
2024/04/16 05:23:22;;;;;;;3.45;0.75;;;7.50;67.50;;;2.86;100.00;94984.13;5267913;27;20021;-47
2024/04/16 05:25:56;;;;;;;3.70;0.90;;;7.60;67.50;;;2.87;100.00;94975.19;5263648;27;20460;-47
2024/04/16 05:28:23;;;;;;;3.83;1.00;;;7.60;67.50;;;2.94;100.00;94989.81;5293529;26;20352;-46
2024/04/16 05:30:49;;;;;;;4.55;1.08;;;7.60;67.40;;;2.94;100.00;94987.19;5266788;27;20018;-46
2024/04/16 05:33:14;;;;;;;1.60;0.95;;;7.70;67.40;;;3.03;100.00;95000.00;5267723;27;20042;-48
2024/04/16 05:35:40;;;;;;;4.57;1.15;;;7.70;67.30;;;2.84;100.00;95002.75;5268171;27;20061;-49
2024/04/16 05:38:06;;;;;;;5.68;1.23;;;7.70;67.50;;;2.86;100.00;95002.53;5265630;27;20021;-47
2024/04/16 05:40:33;;;;;;;5.78;1.52;;;7.70;67.30;;;2.85;100.00;94998.31;5267567;27;20014;-49
2024/04/16 05:42:59;;;;;;;5.50;1.10;;;7.70;67.20;;;2.86;100.00;94989.41;5266005;27;20109;-47
2024/04/16 05:45:25;;;;;;;5.50;0.98;;;7.70;67.00;;;2.86;100.00;94970.97;5294490;27;20010;-48
2024/04/16 05:47:51;;;;;;;6.45;1.30;;;7.80;67.00;;;2.93;100.00;94995.31;5294537;27;20305;-46
2024/04/16 05:50:16;;;;;;;5.72;1.30;;;7.80;67.10;;;2.96;100.00;94990.41;5266161;27;20108;-48
2024/04/16 05:52:42;;;;;;;2.55;1.05;;;7.90;67.10;;;3.00;100.00;94999.44;5294756;26;20084;-51
2024/04/16 05:55:08;;;;;;;5.22;1.13;;;7.90;66.90;;;3.10;100.00;94996.19;5266278;27;20021;-51
2024/04/16 05:57:34;;;;;;;6.22;1.35;;;8.10;66.80;;;3.22;100.00;95002.25;5267900;27;20020;-53
2024/04/16 06:00:00;;;;;;;5.30;1.20;;;8.20;66.60;;;3.36;100.00;94994.09;5264216;27;20024;-52
2024/04/16 06:02:26;;;;;;;7.05;1.13;;;8.50;66.50;;;3.52;100.00;94995.22;5267320;27;21157;-56
2024/04/16 06:04:52;;;;;;;2.78;0.90;;;8.70;66.30;;;3.66;100.00;95007.84;5267089;27;20459;-49
2024/04/16 06:07:20;;;;;;;4.22;1.23;;;8.90;66.20;;;3.72;100.00;95009.53;5265218;27;20057;-54
2024/04/16 06:09:46;;;;;;;8.45;1.40;;;9.00;66.00;;;3.83;100.00;95009.75;5266894;27;20009;-54
2024/04/16 06:12:11;;;;;;;5.13;1.10;;;9.10;65.80;;;3.88;100.00;95005.34;5264783;27;20010;-55
2024/04/16 06:14:37;;;;;;;4.95;1.42;;;9.20;65.70;;;4.05;100.00;94999.34;5267416;27;20006;-51
2024/04/16 06:17:03;;;;;;;3.83;1.20;;;9.30;65.60;;;4.04;100.00;94995.06;5267156;27;20432;-53
2024/04/16 06:19:29;;;;;;;4.72;1.25;;;9.50;65.60;;;4.18;100.00;95001.66;5265319;27;20009;-56
2024/04/16 06:21:55;;;;;;;5.88;1.50;;;9.60;65.40;;;4.43;100.00;95003.91;5266939;27;20754;-53
2024/04/16 06:24:21;;;;;;;4.10;1.23;;;9.80;65.40;;;4.54;100.00;94997.75;5265789;27;20010;-56
2024/04/16 06:26:46;;;;;;;3.55;1.38;;;10.10;65.30;;;4.64;100.00;94983.94;5265244;27;20556;-55
2024/04/16 06:29:12;;;;;;;5.93;1.65;;;10.30;65.00;;;4.83;100.00;94995.81;5289361;26;20050;-52
2024/04/16 06:31:38;;;;;;;5.20;1.20;;;10.50;64.60;;;4.98;100.00;94995.22;5265215;27;20006;-53
2024/04/16 06:34:04;;;;;;;7.18;1.40;;;10.70;64.30;;;5.15;100.00;94995.19;5263394;27;20477;-53
2024/04/16 06:36:30;;;;;;;4.13;1.33;;;10.90;64.10;;;5.09;100.00;94996.94;5262889;27;20411;-49
2024/04/16 06:38:56;;;;;;;3.33;0.93;;;11.00;63.70;;;5.19;100.00;94987.56;5266113;27;20087;-53
2024/04/16 06:41:21;;;;;;;5.82;1.00;;;11.10;63.30;;;5.29;100.00;94992.97;5266568;27;20024;-56
2024/04/16 06:43:47;;;;;;;6.18;1.15;;;11.10;62.70;;;5.40;100.00;94988.63;5292086;26;20469;-52
2024/04/16 06:46:14;;;;;;;2.95;0.85;;;11.20;62.40;;;5.39;99.76;94985.19;5293720;26;20010;-54
2024/04/16 06:48:40;;;;;;;5.43;1.30;;;11.40;62.10;;;5.61;100.00;94992.28;5291659;26;20020;-54
2024/04/16 06:51:06;;;;;;;2.70;1.00;;;11.50;61.90;;;5.65;98.99;94980.97;5266401;27;20029;-48
2024/04/16 06:53:31;;;;;;;3.63;1.30;;;11.60;61.80;;;5.68;99.06;94983.13;5266364;27;20030;-51
2024/04/16 06:56:06;;;;;;;3.35;0.73;;;11.60;61.30;;;5.48;92.97;94982.88;5265283;27;20037;-49
2024/04/16 06:58:32;;;;;;;3.92;0.93;;;11.70;60.50;;;5.67;92.91;94975.44;5257897;27;20069;-49
2024/04/16 07:01:00;;;;;;;6.05;1.20;;;11.90;60.00;;;6.22;95.07;94987.66;5265311;27;20353;-49
2024/04/16 07:03:27;;;;;;;3.50;1.60;;;12.30;59.80;;;6.34;88.35;94985.63;5265847;27;20005;-49
2024/04/16 07:05:53;;;;;;;2.85;0.88;;;12.60;59.30;;;6.58;88.27;94986.09;5266088;27;20395;-51
2024/04/16 07:08:20;;;;;;;3.22;1.08;;;12.90;58.90;;;6.55;86.47;94991.06;5264300;27;20028;-52
2024/04/16 07:10:46;;;;;;;5.60;1.30;;;13.10;58.30;;;6.57;83.86;94988.97;5266360;27;20024;-50
2024/04/16 07:13:14;;;;;;;3.40;0.90;;;13.10;57.80;;;6.68;84.28;94990.66;5265291;27;20005;-48
2024/04/16 07:15:40;;;;;;;5.00;1.35;;;13.20;57.50;;;6.44;82.57;94998.16;5266598;27;20392;-48
2024/04/16 07:18:06;;;;;;;5.97;1.20;;;13.10;56.90;;;6.59;85.76;94990.34;5264420;27;20005;-49
2024/04/16 07:20:33;;;;;;;7.80;1.40;;;13.00;56.60;;;6.47;83.96;94984.41;5266010;27;20141;-48
2024/04/16 07:22:58;;;;;;;3.20;1.08;;;13.00;56.50;;;6.55;84.82;94991.06;5292908;26;20413;-49
2024/04/16 07:25:24;;;;;;;6.55;1.25;;;12.80;56.20;;;6.54;85.67;94994.78;5291762;26;20024;-51
2024/04/16 07:27:50;;;;;;;6.60;1.13;;;12.80;56.30;;;6.41;82.25;94988.06;5264881;27;20021;-53
2024/04/16 07:30:18;;;;;;;4.80;1.50;;;12.80;56.00;;;6.43;84.42;95000.00;5263888;27;20010;-52
2024/04/16 07:32:44;;;;;;;3.78;1.13;;;12.80;55.60;;;6.39;79.63;94987.50;5263250;27;20020;-52
2024/04/16 07:35:10;;;;;;;9.02;1.20;;;12.90;55.40;;;6.29;76.73;94995.38;5265543;27;20025;-50
2024/04/16 07:37:36;;;;;;;7.00;1.25;;;12.90;54.70;;;6.44;79.86;94995.50;5265944;27;20039;-48
2024/04/16 07:40:03;;;;;;;5.05;1.33;;;13.00;54.40;;;6.47;76.86;94990.50;5268724;27;20006;-52
2024/04/16 07:42:29;;;;;;;4.07;1.10;;;13.00;54.20;;;6.45;76.40;94994.44;5294746;26;20030;-49
2024/04/16 07:44:55;;;;;;;6.53;1.40;;;13.00;53.80;;;6.53;77.06;94990.56;5268859;27;20368;-52
2024/04/16 07:47:21;;;;;;;4.22;1.10;;;13.00;53.80;;;6.47;76.49;94993.16;5269232;27;20021;-57
2024/04/16 07:49:48;;;;;;;6.07;1.20;;;13.00;53.60;;;6.49;76.14;94984.97;5265720;27;20006;-56
2024/04/16 07:52:14;;;;;;;8.18;1.60;;;13.10;53.40;;;6.44;77.87;94992.84;5268907;27;20675;-56
2024/04/16 07:54:39;;;;;;;6.28;1.38;;;13.00;53.20;;;6.65;77.39;94996.47;5268075;27;20025;-54
2024/04/16 07:57:05;;;;;;;5.32;1.38;;;13.30;53.30;;;6.90;74.32;94996.63;5268675;27;20010;-52
2024/04/16 07:59:31;;;;;;;4.72;1.15;;;13.50;53.20;;;7.00;75.11;95006.50;5268041;27;20010;-52
2024/04/16 08:01:57;;;;;;;4.32;1.10;;;13.60;52.90;;;7.17;76.27;95006.31;5267402;27;20002;-54
2024/04/16 08:04:23;;;;;;;4.40;1.08;;;13.70;52.50;;;7.23;74.27;95002.63;5268695;27;20044;-53
2024/04/16 08:06:49;;;;;;;6.55;1.50;;;13.80;52.30;;;7.12;74.81;94996.50;5267059;27;20477;-55
2024/04/16 08:09:15;;;;;;;5.18;1.27;;;13.80;51.80;;;7.21;72.31;94996.81;5293538;26;20026;-55
2024/04/16 08:11:41;;;;;;;4.55;1.42;;;13.90;51.70;;;6.98;71.21;94989.25;5268401;27;20514;-53
2024/04/16 08:14:06;;;;;;;4.63;1.52;;;13.90;51.10;;;7.21;75.21;95004.75;5267286;27;20050;-55
2024/04/16 08:16:33;;;;;;;4.95;1.83;;;14.10;51.10;;;7.32;70.79;94998.44;5268660;27;20009;-57
2024/04/16 08:18:58;;;;;;;5.15;1.52;;;14.30;50.50;;;7.32;72.30;94993.16;5266660;27;20017;-55
2024/04/16 08:21:24;;;;;;;8.63;3.42;;;14.40;50.10;;;7.79;72.64;95000.22;5295454;26;20141;-56
2024/04/16 08:23:53;;;;;;;7.93;1.75;;;14.60;50.20;;;7.68;70.34;95003.91;5268604;27;20021;-48
2024/04/16 08:26:19;;;;;;;4.53;1.42;;;14.80;49.50;;;7.71;67.62;94998.09;5265814;27;20009;-50
2024/04/16 08:28:44;;;;;;;3.75;1.83;;;14.90;48.80;;;7.95;66.52;94989.66;5266670;27;20473;-49
2024/04/16 08:31:10;;;;;;;4.50;1.20;;;15.10;48.40;;;7.94;65.81;94998.69;5293683;26;20006;-56
2024/04/16 08:33:36;;;;;;;3.28;1.10;;;15.20;48.00;;;8.08;64.64;94997.94;5268386;27;20087;-52
2024/04/16 08:36:02;;;;;;;7.10;1.20;;;15.30;47.20;;;8.71;66.29;94996.91;5267180;27;20018;-52
2024/04/16 08:38:28;;;;;;;5.75;1.33;;;15.80;47.20;;;9.05;64.32;94991.81;5267826;27;20009;-49
2024/04/16 08:40:56;;;;;;;3.80;1.40;;;16.30;46.80;;;9.30;62.63;94993.63;5268576;27;20025;-51
2024/04/16 08:43:25;;;;;;;4.60;1.27;;;16.70;46.50;;;9.40;61.46;94998.94;5266992;27;20375;-50
2024/04/16 08:45:53;;;;;;;5.15;1.30;;;17.00;45.70;;;9.43;61.70;94998.38;5295004;26;20150;-49
2024/04/16 08:48:22;;;;;;;5.80;1.50;;;17.10;45.20;;;9.57;62.26;94989.81;5291294;26;20063;-51
2024/04/16 08:50:51;;;;;;;5.65;1.70;;;17.20;44.60;;;9.51;60.39;94994.38;5268366;27;20495;-48
2024/04/16 08:53:20;;;;;;;6.05;1.48;;;17.20;44.40;;;9.91;59.21;95000.59;5290720;26;20022;-49
2024/04/16 08:55:47;;;;;;;4.90;1.70;;;17.30;44.20;;;9.91;58.35;94989.94;5292526;26;20800;-51
2024/04/16 08:58:13;;;;;;;8.50;1.50;;;17.50;43.90;;;10.49;58.47;94987.44;5294605;26;20049;-49
2024/04/16 09:00:40;;;;;;;4.43;1.27;;;17.90;43.70;;;10.71;53.47;94987.00;5267022;27;20452;-52
2024/04/16 09:03:06;;;;;;;5.90;1.52;;;18.30;42.60;;;10.86;54.19;94988.75;5294703;26;20452;-51
2024/04/16 09:05:33;;;;;;;3.75;2.10;;;18.70;41.80;;;11.53;53.35;95003.03;5294393;26;20032;-53
2024/04/16 09:07:58;;;;;;;5.40;2.00;;;19.20;41.20;;;11.78;50.26;95001.91;5293116;26;20105;-52
2024/04/16 09:10:25;;;;;;;5.10;1.75;;;19.70;39.60;;;12.02;52.52;94999.22;5268007;27;20013;-50
2024/04/16 09:12:53;;;;;;;5.85;1.88;;;20.00;39.30;;;12.02;50.27;95004.56;5266932;27;20050;-49
2024/04/16 09:15:20;;;;;;;4.97;1.95;;;20.20;38.70;;;12.10;50.03;95005.81;5262806;27;20014;-48
2024/04/16 09:17:56;;;;;;;3.78;1.60;;;20.50;37.90;;;12.19;48.93;95000.59;5262461;27;20009;-49
2024/04/16 09:20:26;;;;;;;3.78;1.90;;;20.80;37.10;;;12.17;46.35;94978.75;5287453;26;20009;-52
2024/04/16 09:22:54;;;;;;;5.57;1.70;;;21.20;36.00;;;11.97;49.00;94991.31;5291556;27;20006;-49
2024/04/16 09:25:25;;;;;;;5.53;1.70;;;21.30;34.60;;;12.16;47.76;94971.81;5261610;27;20054;-55
2024/04/16 09:27:58;;;;;;;4.18;1.27;;;21.10;34.30;;;12.20;50.31;94975.50;5293021;27;20060;-53
2024/04/16 09:30:24;;;;;;;5.18;1.90;;;21.00;34.20;;;12.45;48.97;94977.00;5266232;27;20023;-56
2024/04/16 09:33:04;;;;;;;3.78;1.50;;;21.10;34.30;;;11.94;48.00;94981.19;5294515;26;20006;-54
2024/04/16 09:35:32;;;;;;;4.28;1.17;;;20.90;33.60;;;11.35;47.90;94982.41;5266293;27;20009;-55
2024/04/16 09:38:08;;;;;;;2.80;1.40;;;20.60;33.00;;;10.96;48.50;95001.19;5265838;27;20021;-50
2024/04/16 09:40:35;;;;;;;6.03;1.60;;;20.10;32.80;;;11.11;50.83;95001.06;5265971;27;20564;-54
2024/04/16 09:43:05;;;;;;;4.55;1.52;;;19.70;33.60;;;11.20;48.46;95002.03;5266077;27;20139;-51
2024/04/16 09:45:32;;;;;;;7.70;1.75;;;19.50;33.60;;;10.84;50.78;94998.88;5294078;26;20010;-54
2024/04/16 09:47:59;;;;;;;5.55;1.42;;;19.20;33.60;;;10.87;48.93;94999.16;5266743;27;20614;-53
2024/04/16 09:50:27;;;;;;;4.85;1.30;;;19.00;33.90;;;10.31;52.23;94994.25;5266587;27;20031;-55
2024/04/16 09:52:56;;;;;;;3.03;1.20;;;18.80;33.20;;;10.42;48.71;94995.75;5294457;26;20006;-54
2024/04/16 09:55:24;;;;;;;3.88;1.23;;;18.60;33.50;;;10.50;49.93;94990.91;5266508;27;20080;-55
2024/04/16 09:57:53;;;;;;;5.35;1.48;;;18.50;33.70;;;10.69;48.88;95001.72;5266945;27;20009;-54
2024/04/16 10:00:20;;;;;;;2.97;1.35;;;18.50;33.80;;;11.08;51.13;94981.06;5265190;27;20005;-55
2024/04/16 10:02:48;;;;;;;3.50;1.20;;;19.00;33.80;;;11.11;48.11;94987.72;5267522;27;20006;-53
2024/04/16 10:05:16;;;;;;;4.40;1.40;;;19.50;33.10;;;11.44;49.38;94993.22;5267026;27;20006;-55
2024/04/16 10:07:47;;;;;;;5.47;1.42;;;19.60;33.00;;;11.50;49.32;94989.44;5265744;27;20010;-51
2024/04/16 10:10:16;;;;;;;3.63;1.10;;;19.50;33.20;;;11.13;49.02;94979.47;5267276;27;20028;-56
2024/04/16 10:12:43;;;;;;;4.57;1.40;;;19.20;33.00;;;10.86;47.50;94972.78;5293252;26;20005;-58
2024/04/16 10:15:13;;;;;;;2.33;1.27;;;19.00;32.40;;;10.99;48.07;94971.31;5293791;26;20022;-59
2024/04/16 10:17:56;;;;;;;2.45;1.00;;;19.10;32.70;;;11.65;47.03;94959.13;5266886;27;20009;-58
2024/04/16 10:20:28;;;;;;;1.95;0.95;;;19.50;32.30;;;11.88;43.82;94949.53;5265567;27;20005;-58
2024/04/16 10:22:59;;;;;;;4.43;1.30;;;19.90;32.00;;;12.15;47.32;94944.31;5267333;27;20087;-58
2024/04/16 10:25:30;;;;;;;2.95;1.35;;;20.30;31.40;;;12.55;46.60;94931.44;5262598;27;20006;-58